sensor_id;sensor_type;location;lat;lon;timestamp;P1;durP1;ratioP1;P2;durP2;ratioP2
74100;SDS011;62462;52.530;21.682;2023-07-29T07:47:43;3.55;;;3.13;;
74100;SDS011;62462;52.530;21.682;2023-07-29T07:50:09;5.07;;;3.47;;
74100;SDS011;62462;52.530;21.682;2023-07-29T07:52:35;6.00;;;3.03;;
74100;SDS011;62462;52.530;21.682;2023-07-29T07:55:00;5.53;;;3.33;;
74100;SDS011;62462;52.530;21.682;2023-07-29T07:57:27;5.10;;;3.05;;
74100;SDS011;62462;52.530;21.682;2023-07-29T07:59:52;4.15;;;2.60;;
74100;SDS011;62462;52.530;21.682;2023-07-29T08:02:18;5.40;;;3.50;;
74100;SDS011;62462;52.530;21.682;2023-07-29T08:04:45;3.45;;;2.55;;
74100;SDS011;62462;52.530;21.682;2023-07-29T08:07:11;4.70;;;3.00;;
74100;SDS011;62462;52.530;21.682;2023-07-29T08:09:36;4.82;;;3.60;;
74100;SDS011;62462;52.530;21.682;2023-07-29T08:12:02;8.32;;;3.30;;
74100;SDS011;62462;52.530;21.682;2023-07-29T08:14:28;3.65;;;3.22;;
74100;SDS011;62462;52.530;21.682;2023-07-29T08:16:54;3.67;;;3.38;;
74100;SDS011;62462;52.530;21.682;2023-07-29T08:19:19;3.90;;;3.08;;
74100;SDS011;62462;52.530;21.682;2023-07-29T08:21:45;3.88;;;3.45;;
74100;SDS011;62462;52.530;21.682;2023-07-29T08:24:11;4.30;;;2.97;;
74100;SDS011;62462;52.530;21.682;2023-07-29T08:26:36;5.28;;;3.60;;
74100;SDS011;62462;52.530;21.682;2023-07-29T08:29:02;5.20;;;2.97;;
74100;SDS011;62462;52.530;21.682;2023-07-29T08:31:28;3.53;;;3.20;;
74100;SDS011;62462;52.530;21.682;2023-07-29T08:33:53;3.20;;;2.90;;
74100;SDS011;62462;52.530;21.682;2023-07-29T08:36:19;3.63;;;2.55;;
74100;SDS011;62462;52.530;21.682;2023-07-29T08:38:45;4.93;;;3.00;;
74100;SDS011;62462;52.530;21.682;2023-07-29T08:41:14;6.63;;;2.60;;
74100;SDS011;62462;52.530;21.682;2023-07-29T08:44:30;4.28;;;2.83;;
74100;SDS011;62462;52.530;21.682;2023-07-29T08:46:37;2.90;;;2.60;;
74100;SDS011;62462;52.530;21.682;2023-07-29T08:49:03;3.15;;;2.83;;
74100;SDS011;62462;52.530;21.682;2023-07-29T08:51:29;5.93;;;3.53;;
74100;SDS011;62462;52.530;21.682;2023-07-29T08:53:58;5.05;;;2.60;;
74100;SDS011;62462;52.530;21.682;2023-07-29T08:56:24;4.07;;;2.85;;
74100;SDS011;62462;52.530;21.682;2023-07-29T08:58:50;3.22;;;2.65;;
74100;SDS011;62462;52.530;21.682;2023-07-29T09:01:17;3.35;;;2.95;;
74100;SDS011;62462;52.530;21.682;2023-07-29T09:03:43;2.60;;;2.40;;
74100;SDS011;62462;52.530;21.682;2023-07-29T09:06:08;2.92;;;2.60;;
74100;SDS011;62462;52.530;21.682;2023-07-29T09:08:34;3.17;;;2.80;;
74100;SDS011;62462;52.530;21.682;2023-07-29T09:11:01;4.05;;;2.83;;
74100;SDS011;62462;52.530;21.682;2023-07-29T09:13:27;4.00;;;2.70;;
74100;SDS011;62462;52.530;21.682;2023-07-29T09:15:54;2.92;;;2.55;;
74100;SDS011;62462;52.530;21.682;2023-07-29T09:18:21;8.10;;;3.08;;
74100;SDS011;62462;52.530;21.682;2023-07-29T09:20:47;3.03;;;2.72;;
74100;SDS011;62462;52.530;21.682;2023-07-29T09:23:14;3.08;;;2.58;;
74100;SDS011;62462;52.530;21.682;2023-07-29T09:25:40;3.95;;;2.72;;
74100;SDS011;62462;52.530;21.682;2023-07-29T09:28:10;3.55;;;3.03;;
74100;SDS011;62462;52.530;21.682;2023-07-29T09:30:40;3.70;;;2.40;;
74100;SDS011;62462;52.530;21.682;2023-07-29T09:33:08;3.08;;;2.30;;
74100;SDS011;62462;52.530;21.682;2023-07-29T09:35:36;2.65;;;2.42;;
74100;SDS011;62462;52.530;21.682;2023-07-29T09:38:03;2.95;;;2.65;;
74100;SDS011;62462;52.530;21.682;2023-07-29T09:40:36;2.40;;;2.20;;
74100;SDS011;62462;52.530;21.682;2023-07-29T09:43:03;2.28;;;2.08;;
74100;SDS011;62462;52.530;21.682;2023-07-29T09:45:30;2.13;;;1.92;;
74100;SDS011;62462;52.530;21.682;2023-07-29T09:47:57;2.65;;;2.20;;
74100;SDS011;62462;52.530;21.682;2023-07-29T09:50:24;2.53;;;2.20;;
74100;SDS011;62462;52.530;21.682;2023-07-29T09:52:50;3.40;;;2.10;;
74100;SDS011;62462;52.530;21.682;2023-07-29T09:55:18;2.65;;;2.45;;
74100;SDS011;62462;52.530;21.682;2023-07-29T09:57:44;4.40;;;2.58;;
74100;SDS011;62462;52.530;21.682;2023-07-29T10:00:11;2.45;;;2.25;;
74100;SDS011;62462;52.530;21.682;2023-07-29T10:02:41;3.78;;;2.40;;
74100;SDS011;62462;52.530;21.682;2023-07-29T10:05:08;3.65;;;2.22;;
74100;SDS011;62462;52.530;21.682;2023-07-29T10:07:38;2.35;;;2.00;;
74100;SDS011;62462;52.530;21.682;2023-07-29T10:10:05;2.28;;;2.05;;
74100;SDS011;62462;52.530;21.682;2023-07-29T10:12:33;2.10;;;1.90;;
74100;SDS011;62462;52.530;21.682;2023-07-29T10:15:00;2.20;;;2.00;;
74100;SDS011;62462;52.530;21.682;2023-07-29T10:17:29;3.42;;;1.90;;
74100;SDS011;62462;52.530;21.682;2023-07-29T10:19:56;1.75;;;1.60;;
74100;SDS011;62462;52.530;21.682;2023-07-29T10:22:25;3.53;;;1.80;;
74100;SDS011;62462;52.530;21.682;2023-07-29T10:24:54;3.05;;;2.00;;
74100;SDS011;62462;52.530;21.682;2023-07-29T10:27:27;2.03;;;1.83;;
74100;SDS011;62462;52.530;21.682;2023-07-29T10:29:54;2.50;;;2.08;;
74100;SDS011;62462;52.530;21.682;2023-07-29T10:32:22;1.77;;;1.60;;
74100;SDS011;62462;52.530;21.682;2023-07-29T10:34:51;1.75;;;1.65;;
74100;SDS011;62462;52.530;21.682;2023-07-29T10:37:17;2.72;;;1.67;;
74100;SDS011;62462;52.530;21.682;2023-07-29T10:39:51;2.17;;;1.98;;
74100;SDS011;62462;52.530;21.682;2023-07-29T10:42:19;1.85;;;1.70;;
74100;SDS011;62462;52.530;21.682;2023-07-29T10:47:18;3.05;;;1.70;;
74100;SDS011;62462;52.530;21.682;2023-07-29T10:49:49;2.10;;;1.73;;
74100;SDS011;62462;52.530;21.682;2023-07-29T10:52:30;4.55;;;1.70;;
74100;SDS011;62462;52.530;21.682;2023-07-29T10:55:04;3.75;;;1.67;;
74100;SDS011;62462;52.530;21.682;2023-07-29T10:57:52;2.42;;;1.80;;
74100;SDS011;62462;52.530;21.682;2023-07-29T11:00:30;2.28;;;1.77;;
74100;SDS011;62462;52.530;21.682;2023-07-29T11:02:59;3.33;;;1.75;;
74100;SDS011;62462;52.530;21.682;2023-07-29T11:05:27;3.40;;;1.90;;
74100;SDS011;62462;52.530;21.682;2023-07-29T11:08:19;4.95;;;1.90;;
74100;SDS011;62462;52.530;21.682;2023-07-29T11:15:55;3.10;;;1.83;;
74100;SDS011;62462;52.530;21.682;2023-07-29T11:18:23;2.88;;;1.80;;
74100;SDS011;62462;52.530;21.682;2023-07-29T11:20:53;2.47;;;1.60;;
74100;SDS011;62462;52.530;21.682;2023-07-29T11:23:21;2.95;;;2.22;;
74100;SDS011;62462;52.530;21.682;2023-07-29T11:25:55;2.38;;;1.88;;
74100;SDS011;62462;52.530;21.682;2023-07-29T11:28:21;3.28;;;1.73;;
74100;SDS011;62462;52.530;21.682;2023-07-29T11:30:47;3.17;;;1.42;;
74100;SDS011;62462;52.530;21.682;2023-07-29T11:33:16;2.72;;;1.67;;
74100;SDS011;62462;52.530;21.682;2023-07-29T11:35:46;2.00;;;1.80;;
74100;SDS011;62462;52.530;21.682;2023-07-29T11:38:15;2.13;;;1.70;;
74100;SDS011;62462;52.530;21.682;2023-07-29T11:40:42;1.83;;;1.40;;
74100;SDS011;62462;52.530;21.682;2023-07-29T11:43:08;1.73;;;1.40;;
74100;SDS011;62462;52.530;21.682;2023-07-29T11:45:34;1.90;;;1.50;;
74100;SDS011;62462;52.530;21.682;2023-07-29T11:48:02;1.77;;;1.50;;
74100;SDS011;62462;52.530;21.682;2023-07-29T11:50:28;1.50;;;1.40;;
74100;SDS011;62462;52.530;21.682;2023-07-29T11:52:54;1.80;;;1.38;;
74100;SDS011;62462;52.530;21.682;2023-07-29T11:55:20;2.47;;;1.55;;
74100;SDS011;62462;52.530;21.682;2023-07-29T11:57:46;1.60;;;1.50;;
74100;SDS011;62462;52.530;21.682;2023-07-29T12:00:16;1.83;;;1.40;;
74100;SDS011;62462;52.530;21.682;2023-07-29T12:02:43;2.42;;;1.80;;
74100;SDS011;62462;52.530;21.682;2023-07-29T12:05:10;1.92;;;1.50;;
74100;SDS011;62462;52.530;21.682;2023-07-29T12:07:38;4.55;;;1.73;;
74100;SDS011;62462;52.530;21.682;2023-07-29T12:10:04;1.65;;;1.55;;
74100;SDS011;62462;52.530;21.682;2023-07-29T12:12:30;2.25;;;1.80;;
74100;SDS011;62462;52.530;21.682;2023-07-29T12:14:56;2.85;;;1.50;;
74100;SDS011;62462;52.530;21.682;2023-07-29T12:17:23;1.67;;;1.52;;
74100;SDS011;62462;52.530;21.682;2023-07-29T12:19:48;2.50;;;1.67;;
74100;SDS011;62462;52.530;21.682;2023-07-29T12:22:18;1.52;;;1.42;;
74100;SDS011;62462;52.530;21.682;2023-07-29T12:24:44;3.78;;;1.88;;
74100;SDS011;62462;52.530;21.682;2023-07-29T12:27:11;3.28;;;1.98;;
74100;SDS011;62462;52.530;21.682;2023-07-29T12:29:42;2.83;;;1.90;;
74100;SDS011;62462;52.530;21.682;2023-07-29T12:32:08;2.83;;;1.98;;
74100;SDS011;62462;52.530;21.682;2023-07-29T12:34:35;1.95;;;1.70;;
74100;SDS011;62462;52.530;21.682;2023-07-29T12:37:03;3.50;;;2.10;;
74100;SDS011;62462;52.530;21.682;2023-07-29T12:39:30;2.75;;;1.90;;
74100;SDS011;62462;52.530;21.682;2023-07-29T12:41:58;2.35;;;1.70;;
74100;SDS011;62462;52.530;21.682;2023-07-29T12:44:27;1.95;;;1.75;;
74100;SDS011;62462;52.530;21.682;2023-07-29T12:46:57;2.10;;;1.90;;
74100;SDS011;62462;52.530;21.682;2023-07-29T12:49:23;2.63;;;1.85;;
74100;SDS011;62462;52.530;21.682;2023-07-29T12:51:49;1.95;;;1.80;;
74100;SDS011;62462;52.530;21.682;2023-07-29T12:54:15;2.28;;;2.08;;
74100;SDS011;62462;52.530;21.682;2023-07-29T12:56:41;2.30;;;2.10;;
74100;SDS011;62462;52.530;21.682;2023-07-29T12:59:06;4.68;;;2.10;;
74100;SDS011;62462;52.530;21.682;2023-07-29T13:01:32;2.95;;;1.70;;
74100;SDS011;62462;52.530;21.682;2023-07-29T13:03:58;1.80;;;1.63;;
74100;SDS011;62462;52.530;21.682;2023-07-29T13:06:24;1.83;;;1.70;;
74100;SDS011;62462;52.530;21.682;2023-07-29T13:08:49;2.13;;;1.50;;
74100;SDS011;62462;52.530;21.682;2023-07-29T13:11:16;1.70;;;1.60;;
74100;SDS011;62462;52.530;21.682;2023-07-29T13:13:42;1.92;;;1.73;;
74100;SDS011;62462;52.530;21.682;2023-07-29T13:16:07;3.20;;;1.75;;
74100;SDS011;62462;52.530;21.682;2023-07-29T13:18:33;2.28;;;1.67;;
74100;SDS011;62462;52.530;21.682;2023-07-29T13:20:59;2.20;;;1.50;;
74100;SDS011;62462;52.530;21.682;2023-07-29T13:23:25;2.20;;;1.70;;
74100;SDS011;62462;52.530;21.682;2023-07-29T13:25:52;2.22;;;1.90;;
74100;SDS011;62462;52.530;21.682;2023-07-29T13:28:17;1.80;;;1.70;;
74100;SDS011;62462;52.530;21.682;2023-07-29T13:30:44;1.88;;;1.77;;
74100;SDS011;62462;52.530;21.682;2023-07-29T13:33:10;1.90;;;1.80;;
74100;SDS011;62462;52.530;21.682;2023-07-29T13:35:36;1.90;;;1.75;;
74100;SDS011;62462;52.530;21.682;2023-07-29T13:38:01;1.58;;;1.48;;
74100;SDS011;62462;52.530;21.682;2023-07-29T13:40:27;1.90;;;1.80;;
74100;SDS011;62462;52.530;21.682;2023-07-29T13:42:53;1.95;;;1.52;;
74100;SDS011;62462;52.530;21.682;2023-07-29T13:45:20;3.70;;;1.50;;
74100;SDS011;62462;52.530;21.682;2023-07-29T13:47:46;1.73;;;1.40;;
74100;SDS011;62462;52.530;21.682;2023-07-29T13:50:12;1.55;;;1.45;;
74100;SDS011;62462;52.530;21.682;2023-07-29T13:52:38;2.00;;;1.42;;
74100;SDS011;62462;52.530;21.682;2023-07-29T13:55:04;1.40;;;1.30;;
74100;SDS011;62462;52.530;21.682;2023-07-29T13:57:31;1.50;;;1.33;;
74100;SDS011;62462;52.530;21.682;2023-07-29T13:59:57;3.28;;;1.60;;
74100;SDS011;62462;52.530;21.682;2023-07-29T14:02:22;1.90;;;1.45;;
74100;SDS011;62462;52.530;21.682;2023-07-29T14:04:48;2.38;;;1.27;;
74100;SDS011;62462;52.530;21.682;2023-07-29T14:07:14;1.98;;;1.48;;
74100;SDS011;62462;52.530;21.682;2023-07-29T14:09:40;1.52;;;1.42;;
74100;SDS011;62462;52.530;21.682;2023-07-29T14:12:07;1.63;;;1.52;;
74100;SDS011;62462;52.530;21.682;2023-07-29T14:14:37;1.75;;;1.40;;
74100;SDS011;62462;52.530;21.682;2023-07-29T14:17:03;1.70;;;1.40;;
74100;SDS011;62462;52.530;21.682;2023-07-29T14:19:29;1.30;;;1.20;;
74100;SDS011;62462;52.530;21.682;2023-07-29T14:21:55;1.20;;;1.10;;
74100;SDS011;62462;52.530;21.682;2023-07-29T14:24:21;1.95;;;1.15;;
74100;SDS011;62462;52.530;21.682;2023-07-29T14:26:47;1.15;;;1.05;;
74100;SDS011;62462;52.530;21.682;2023-07-29T14:29:13;1.90;;;1.40;;
74100;SDS011;62462;52.530;21.682;2023-07-29T14:31:39;2.03;;;1.10;;
74100;SDS011;62462;52.530;21.682;2023-07-29T14:34:04;0.93;;;0.90;;
74100;SDS011;62462;52.530;21.682;2023-07-29T14:36:30;1.45;;;1.10;;
74100;SDS011;62462;52.530;21.682;2023-07-29T14:38:56;2.17;;;1.17;;
74100;SDS011;62462;52.530;21.682;2023-07-29T14:41:21;1.50;;;1.15;;
74100;SDS011;62462;52.530;21.682;2023-07-29T14:43:47;1.30;;;1.20;;
74100;SDS011;62462;52.530;21.682;2023-07-29T14:46:13;2.08;;;1.23;;
74100;SDS011;62462;52.530;21.682;2023-07-29T14:48:38;1.30;;;1.20;;
74100;SDS011;62462;52.530;21.682;2023-07-29T14:51:04;1.40;;;1.20;;
74100;SDS011;62462;52.530;21.682;2023-07-29T14:53:30;1.38;;;1.27;;
74100;SDS011;62462;52.530;21.682;2023-07-29T14:55:56;1.45;;;0.90;;
74100;SDS011;62462;52.530;21.682;2023-07-29T14:58:21;1.00;;;0.90;;
74100;SDS011;62462;52.530;21.682;2023-07-29T15:00:48;1.67;;;1.30;;
74100;SDS011;62462;52.530;21.682;2023-07-29T15:03:14;1.27;;;1.17;;
74100;SDS011;62462;52.530;21.682;2023-07-29T15:05:39;1.60;;;1.10;;
74100;SDS011;62462;52.530;21.682;2023-07-29T15:08:05;1.75;;;1.00;;
74100;SDS011;62462;52.530;21.682;2023-07-29T15:10:31;2.53;;;1.10;;
74100;SDS011;62462;52.530;21.682;2023-07-29T15:12:57;0.80;;;0.80;;
74100;SDS011;62462;52.530;21.682;2023-07-29T15:15:22;1.20;;;1.10;;
74100;SDS011;62462;52.530;21.682;2023-07-29T15:17:48;1.30;;;1.20;;
74100;SDS011;62462;52.530;21.682;2023-07-29T15:20:14;1.40;;;1.30;;
74100;SDS011;62462;52.530;21.682;2023-07-29T15:22:39;1.17;;;1.08;;
74100;SDS011;62462;52.530;21.682;2023-07-29T15:25:05;1.23;;;1.13;;
74100;SDS011;62462;52.530;21.682;2023-07-29T15:27:33;1.33;;;1.23;;
74100;SDS011;62462;52.530;21.682;2023-07-29T15:29:59;1.55;;;1.10;;
74100;SDS011;62462;52.530;21.682;2023-07-29T15:32:24;1.45;;;1.23;;
74100;SDS011;62462;52.530;21.682;2023-07-29T15:34:50;1.17;;;1.08;;
74100;SDS011;62462;52.530;21.682;2023-07-29T15:37:17;1.50;;;1.40;;
74100;SDS011;62462;52.530;21.682;2023-07-29T15:39:42;4.20;;;1.40;;
74100;SDS011;62462;52.530;21.682;2023-07-29T15:42:08;1.20;;;1.10;;
74100;SDS011;62462;52.530;21.682;2023-07-29T15:44:34;1.30;;;0.98;;
74100;SDS011;62462;52.530;21.682;2023-07-29T15:46:59;1.35;;;0.90;;
74100;SDS011;62462;52.530;21.682;2023-07-29T15:49:25;1.10;;;1.00;;
74100;SDS011;62462;52.530;21.682;2023-07-29T15:51:51;2.55;;;1.23;;
74100;SDS011;62462;52.530;21.682;2023-07-29T15:54:16;1.92;;;1.50;;
74100;SDS011;62462;52.530;21.682;2023-07-29T15:56:42;1.45;;;1.20;;
74100;SDS011;62462;52.530;21.682;2023-07-29T15:59:08;3.00;;;1.40;;
74100;SDS011;62462;52.530;21.682;2023-07-29T16:01:34;1.30;;;1.05;;
74100;SDS011;62462;52.530;21.682;2023-07-29T16:04:00;1.35;;;1.25;;
74100;SDS011;62462;52.530;21.682;2023-07-29T16:06:26;1.55;;;1.40;;
74100;SDS011;62462;52.530;21.682;2023-07-29T16:08:52;2.47;;;1.95;;
74100;SDS011;62462;52.530;21.682;2023-07-29T16:11:18;2.83;;;1.98;;
74100;SDS011;62462;52.530;21.682;2023-07-29T16:13:45;4.70;;;3.20;;
74100;SDS011;62462;52.530;21.682;2023-07-29T16:16:11;2.60;;;2.28;;
74100;SDS011;62462;52.530;21.682;2023-07-29T16:18:37;1.77;;;1.60;;
74100;SDS011;62462;52.530;21.682;2023-07-29T16:21:03;1.60;;;1.50;;
74100;SDS011;62462;52.530;21.682;2023-07-29T16:23:30;2.55;;;1.08;;
74100;SDS011;62462;52.530;21.682;2023-07-29T16:25:57;3.15;;;1.77;;
74100;SDS011;62462;52.530;21.682;2023-07-29T16:28:24;1.50;;;1.40;;
74100;SDS011;62462;52.530;21.682;2023-07-29T16:30:50;1.50;;;1.25;;
74100;SDS011;62462;52.530;21.682;2023-07-29T16:33:16;1.45;;;1.20;;
74100;SDS011;62462;52.530;21.682;2023-07-29T16:35:41;2.67;;;1.15;;
74100;SDS011;62462;52.530;21.682;2023-07-29T16:38:07;2.35;;;1.40;;
74100;SDS011;62462;52.530;21.682;2023-07-29T16:40:33;1.35;;;1.10;;
74100;SDS011;62462;52.530;21.682;2023-07-29T16:42:59;1.45;;;1.20;;
74100;SDS011;62462;52.530;21.682;2023-07-29T16:45:25;1.27;;;1.13;;
74100;SDS011;62462;52.530;21.682;2023-07-29T16:47:55;6.35;;;1.55;;
74100;SDS011;62462;52.530;21.682;2023-07-29T16:50:21;1.35;;;1.20;;
74100;SDS011;62462;52.530;21.682;2023-07-29T16:52:47;1.13;;;1.02;;
74100;SDS011;62462;52.530;21.682;2023-07-29T16:55:18;2.25;;;1.23;;
74100;SDS011;62462;52.530;21.682;2023-07-29T16:57:45;1.45;;;1.27;;
74100;SDS011;62462;52.530;21.682;2023-07-29T17:00:11;1.38;;;1.27;;
74100;SDS011;62462;52.530;21.682;2023-07-29T17:02:37;2.42;;;1.40;;
74100;SDS011;62462;52.530;21.682;2023-07-29T17:05:03;1.60;;;1.50;;
74100;SDS011;62462;52.530;21.682;2023-07-29T17:07:29;1.23;;;1.13;;
74100;SDS011;62462;52.530;21.682;2023-07-29T17:09:55;4.07;;;1.75;;
74100;SDS011;62462;52.530;21.682;2023-07-29T17:12:21;1.70;;;1.60;;
74100;SDS011;62462;52.530;21.682;2023-07-29T17:14:47;1.98;;;1.52;;
74100;SDS011;62462;52.530;21.682;2023-07-29T17:17:13;1.73;;;1.50;;
74100;SDS011;62462;52.530;21.682;2023-07-29T17:19:39;3.88;;;1.90;;
74100;SDS011;62462;52.530;21.682;2023-07-29T17:22:04;2.15;;;1.80;;
74100;SDS011;62462;52.530;21.682;2023-07-29T17:24:30;2.25;;;1.88;;
74100;SDS011;62462;52.530;21.682;2023-07-29T17:26:56;2.50;;;1.88;;
74100;SDS011;62462;52.530;21.682;2023-07-29T17:29:21;3.05;;;1.90;;
74100;SDS011;62462;52.530;21.682;2023-07-29T17:31:48;4.88;;;2.88;;
74100;SDS011;62462;52.530;21.682;2023-07-29T17:34:13;4.22;;;2.33;;
74100;SDS011;62462;52.530;21.682;2023-07-29T17:36:39;2.67;;;2.20;;
74100;SDS011;62462;52.530;21.682;2023-07-29T17:39:05;3.47;;;2.80;;
74100;SDS011;62462;52.530;21.682;2023-07-29T17:41:34;3.70;;;3.00;;
74100;SDS011;62462;52.530;21.682;2023-07-29T17:43:59;3.92;;;3.20;;
74100;SDS011;62462;52.530;21.682;2023-07-29T17:46:25;3.95;;;3.13;;
74100;SDS011;62462;52.530;21.682;2023-07-29T17:48:50;4.07;;;3.42;;
74100;SDS011;62462;52.530;21.682;2023-07-29T17:51:16;7.15;;;3.40;;
74100;SDS011;62462;52.530;21.682;2023-07-29T17:53:42;4.53;;;3.45;;
74100;SDS011;62462;52.530;21.682;2023-07-29T17:56:08;3.97;;;3.42;;
74100;SDS011;62462;52.530;21.682;2023-07-29T17:58:34;5.38;;;3.67;;
74100;SDS011;62462;52.530;21.682;2023-07-29T18:01:01;6.15;;;3.33;;
74100;SDS011;62462;52.530;21.682;2023-07-29T18:03:27;5.68;;;4.22;;
74100;SDS011;62462;52.530;21.682;2023-07-29T18:05:53;35.67;;;23.77;;
74100;SDS011;62462;52.530;21.682;2023-07-29T18:08:18;52.42;;;33.47;;
74100;SDS011;62462;52.530;21.682;2023-07-29T18:10:44;69.35;;;38.72;;
74100;SDS011;62462;52.530;21.682;2023-07-29T18:13:10;54.63;;;28.38;;
74100;SDS011;62462;52.530;21.682;2023-07-29T18:15:36;56.28;;;27.92;;
74100;SDS011;62462;52.530;21.682;2023-07-29T18:18:02;131.93;;;54.00;;
74100;SDS011;62462;52.530;21.682;2023-07-29T18:20:28;65.45;;;30.50;;
74100;SDS011;62462;52.530;21.682;2023-07-29T18:22:54;153.65;;;67.18;;
74100;SDS011;62462;52.530;21.682;2023-07-29T18:25:20;85.25;;;37.70;;
74100;SDS011;62462;52.530;21.682;2023-07-29T18:27:46;22.75;;;12.05;;
74100;SDS011;62462;52.530;21.682;2023-07-29T18:30:12;108.47;;;43.97;;
74100;SDS011;62462;52.530;21.682;2023-07-29T18:32:40;185.80;;;72.43;;
74100;SDS011;62462;52.530;21.682;2023-07-29T18:35:07;201.52;;;75.95;;
74100;SDS011;62462;52.530;21.682;2023-07-29T18:37:33;151.77;;;57.05;;
74100;SDS011;62462;52.530;21.682;2023-07-29T18:40:00;122.40;;;44.13;;
74100;SDS011;62462;52.530;21.682;2023-07-29T18:42:26;172.00;;;61.13;;
74100;SDS011;62462;52.530;21.682;2023-07-29T18:44:52;73.68;;;25.63;;
74100;SDS011;62462;52.530;21.682;2023-07-29T18:47:17;71.45;;;24.88;;
74100;SDS011;62462;52.530;21.682;2023-07-29T18:49:43;80.35;;;28.95;;
74100;SDS011;62462;52.530;21.682;2023-07-29T18:52:09;99.25;;;36.47;;
74100;SDS011;62462;52.530;21.682;2023-07-29T18:54:34;74.53;;;28.73;;
74100;SDS011;62462;52.530;21.682;2023-07-29T18:57:02;97.20;;;33.97;;
74100;SDS011;62462;52.530;21.682;2023-07-29T18:59:28;46.13;;;17.42;;
74100;SDS011;62462;52.530;21.682;2023-07-29T19:01:53;73.47;;;30.10;;
74100;SDS011;62462;52.530;21.682;2023-07-29T19:04:19;164.10;;;72.68;;
74100;SDS011;62462;52.530;21.682;2023-07-29T19:06:45;71.03;;;33.90;;
74100;SDS011;62462;52.530;21.682;2023-07-29T19:09:10;36.53;;;18.75;;
74100;SDS011;62462;52.530;21.682;2023-07-29T19:11:36;96.22;;;44.53;;
74100;SDS011;62462;52.530;21.682;2023-07-29T19:14:02;165.57;;;69.95;;
74100;SDS011;62462;52.530;21.682;2023-07-29T19:16:28;98.10;;;42.05;;
74100;SDS011;62462;52.530;21.682;2023-07-29T19:18:54;214.60;;;95.82;;
74100;SDS011;62462;52.530;21.682;2023-07-29T19:21:21;341.00;;;135.40;;
74100;SDS011;62462;52.530;21.682;2023-07-29T19:23:47;168.50;;;80.10;;
74100;SDS011;62462;52.530;21.682;2023-07-29T19:26:13;68.20;;;36.47;;
74100;SDS011;62462;52.530;21.682;2023-07-29T19:28:43;161.00;;;79.40;;
74100;SDS011;62462;52.530;21.682;2023-07-29T19:31:09;170.82;;;85.45;;
74100;SDS011;62462;52.530;21.682;2023-07-29T19:33:35;129.63;;;68.88;;
74100;SDS011;62462;52.530;21.682;2023-07-29T19:36:01;160.05;;;83.43;;
74100;SDS011;62462;52.530;21.682;2023-07-29T19:38:26;115.32;;;67.50;;
74100;SDS011;62462;52.530;21.682;2023-07-29T19:40:52;113.95;;;68.85;;
74100;SDS011;62462;52.530;21.682;2023-07-29T19:43:18;103.50;;;58.47;;
74100;SDS011;62462;52.530;21.682;2023-07-29T19:45:49;66.88;;;37.03;;
74100;SDS011;62462;52.530;21.682;2023-07-29T19:48:15;81.07;;;42.60;;
74100;SDS011;62462;52.530;21.682;2023-07-29T19:50:41;103.72;;;56.55;;
74100;SDS011;62462;52.530;21.682;2023-07-29T19:53:07;135.27;;;61.13;;
74100;SDS011;62462;52.530;21.682;2023-07-29T19:55:33;96.82;;;47.70;;
74100;SDS011;62462;52.530;21.682;2023-07-29T19:57:59;72.38;;;38.70;;
74100;SDS011;62462;52.530;21.682;2023-07-29T20:00:25;78.55;;;47.15;;
74100;SDS011;62462;52.530;21.682;2023-07-29T20:02:50;81.40;;;47.28;;
74100;SDS011;62462;52.530;21.682;2023-07-29T20:05:16;94.78;;;48.47;;
74100;SDS011;62462;52.530;21.682;2023-07-29T20:07:42;43.47;;;27.00;;
74100;SDS011;62462;52.530;21.682;2023-07-29T20:10:07;48.25;;;32.75;;
74100;SDS011;62462;52.530;21.682;2023-07-29T20:12:33;31.45;;;21.92;;
74100;SDS011;62462;52.530;21.682;2023-07-29T20:14:59;36.55;;;26.77;;
74100;SDS011;62462;52.530;21.682;2023-07-29T20:17:26;30.35;;;21.40;;
74100;SDS011;62462;52.530;21.682;2023-07-29T20:19:52;22.55;;;17.15;;
74100;SDS011;62462;52.530;21.682;2023-07-29T20:22:18;20.45;;;15.85;;
74100;SDS011;62462;52.530;21.682;2023-07-29T20:24:43;14.35;;;12.02;;
74100;SDS011;62462;52.530;21.682;2023-07-29T20:27:09;17.95;;;14.13;;
74100;SDS011;62462;52.530;21.682;2023-07-29T20:29:35;9.20;;;7.53;;
74100;SDS011;62462;52.530;21.682;2023-07-29T20:32:01;5.18;;;4.20;;
74100;SDS011;62462;52.530;21.682;2023-07-29T20:34:26;4.70;;;4.18;;
74100;SDS011;62462;52.530;21.682;2023-07-29T20:36:52;6.63;;;4.25;;
74100;SDS011;62462;52.530;21.682;2023-07-29T20:39:18;6.32;;;4.03;;
74100;SDS011;62462;52.530;21.682;2023-07-29T20:41:43;6.93;;;4.18;;
74100;SDS011;62462;52.530;21.682;2023-07-29T20:44:09;4.90;;;3.55;;
74100;SDS011;62462;52.530;21.682;2023-07-29T20:46:37;3.80;;;3.38;;
74100;SDS011;62462;52.530;21.682;2023-07-29T20:49:03;33.20;;;25.63;;
74100;SDS011;62462;52.530;21.682;2023-07-29T20:51:28;15.05;;;9.77;;
74100;SDS011;62462;52.530;21.682;2023-07-29T20:53:54;6.63;;;5.90;;
74100;SDS011;62462;52.530;21.682;2023-07-29T20:56:20;6.97;;;4.85;;
74100;SDS011;62462;52.530;21.682;2023-07-29T20:58:46;6.93;;;5.82;;
74100;SDS011;62462;52.530;21.682;2023-07-29T21:01:11;11.30;;;7.20;;
74100;SDS011;62462;52.530;21.682;2023-07-29T21:03:37;13.73;;;9.40;;
74100;SDS011;62462;52.530;21.682;2023-07-29T21:06:03;14.35;;;7.97;;
74100;SDS011;62462;52.530;21.682;2023-07-29T21:08:29;14.70;;;9.32;;
74100;SDS011;62462;52.530;21.682;2023-07-29T21:10:55;9.35;;;7.22;;
74100;SDS011;62462;52.530;21.682;2023-07-29T21:13:21;14.32;;;9.32;;
74100;SDS011;62462;52.530;21.682;2023-07-29T21:15:51;8.15;;;5.00;;
74100;SDS011;62462;52.530;21.682;2023-07-29T21:18:18;17.38;;;12.15;;
74100;SDS011;62462;52.530;21.682;2023-07-29T21:20:43;13.05;;;9.27;;
74100;SDS011;62462;52.530;21.682;2023-07-29T21:23:09;15.52;;;8.50;;
74100;SDS011;62462;52.530;21.682;2023-07-29T21:25:35;8.18;;;5.00;;
74100;SDS011;62462;52.530;21.682;2023-07-29T21:28:01;6.22;;;4.32;;
74100;SDS011;62462;52.530;21.682;2023-07-29T21:30:28;4.68;;;4.20;;
74100;SDS011;62462;52.530;21.682;2023-07-29T21:32:55;5.10;;;3.95;;
74100;SDS011;62462;52.530;21.682;2023-07-29T21:35:20;4.78;;;4.28;;
74100;SDS011;62462;52.530;21.682;2023-07-29T21:37:46;6.13;;;4.35;;
74100;SDS011;62462;52.530;21.682;2023-07-29T21:40:12;6.28;;;4.65;;
74100;SDS011;62462;52.530;21.682;2023-07-29T21:42:39;5.97;;;4.70;;
74100;SDS011;62462;52.530;21.682;2023-07-29T21:45:06;8.02;;;4.68;;
74100;SDS011;62462;52.530;21.682;2023-07-29T21:47:33;5.30;;;3.85;;
74100;SDS011;62462;52.530;21.682;2023-07-29T21:49:58;5.53;;;4.30;;
74100;SDS011;62462;52.530;21.682;2023-07-29T21:52:24;4.65;;;3.83;;
74100;SDS011;62462;52.530;21.682;2023-07-29T21:54:50;5.97;;;4.15;;
74100;SDS011;62462;52.530;21.682;2023-07-29T21:57:16;4.97;;;3.83;;
74100;SDS011;62462;52.530;21.682;2023-07-29T21:59:42;4.10;;;3.22;;
74100;SDS011;62462;52.530;21.682;2023-07-29T22:02:07;4.18;;;3.40;;
74100;SDS011;62462;52.530;21.682;2023-07-29T22:04:35;4.40;;;3.70;;
74100;SDS011;62462;52.530;21.682;2023-07-29T22:07:01;5.57;;;3.47;;
74100;SDS011;62462;52.530;21.682;2023-07-29T22:09:28;4.20;;;3.40;;
74100;SDS011;62462;52.530;21.682;2023-07-29T22:11:54;4.68;;;3.10;;
74100;SDS011;62462;52.530;21.682;2023-07-29T22:14:19;4.97;;;3.00;;
74100;SDS011;62462;52.530;21.682;2023-07-29T22:16:46;6.53;;;2.80;;
74100;SDS011;62462;52.530;21.682;2023-07-29T22:19:12;6.60;;;2.95;;